Aviation Digital Data Service (ADDS)

Output produced by METARs form (0243 UTC 24 July 2017)
found at http://www.aviationweather.gov/adds/metars/
 
MKJP 232315Z 2400/2424 11010KT 9999 FEW022CB 
     BECMG 2404/2406 35005KT 
     BECMG 2414/2416 14021KT FEW022
       
MKJS 232315Z 2400/2424 12005KT 9999 FEW022 
     BECMG 2414/2416 08015KT FEW020 FEW022CB